Time;durP1;ratioP1;P1;durP2;ratioP2;P2;SDS_P1;SDS_P2;PMS_P1;PMS_P2;Temp;Humidity;BMP_temperature;BMP_pressure;BME280_temperature;BME280_humidity;BME280_pressure;Samples;Min_cycle;Max_cycle;Signal;HPM_P1;HPM_P2
2023/05/16 00:04:32;;;;;;;18.17;11.60;;;;;;;11.16;66.70;100324.50;10088681;29;20041;-76
2023/05/16 00:09:35;;;;;;;17.75;11.15;;;;;;;11.30;66.55;100331.38;10089033;29;20045;-76
2023/05/16 00:14:38;;;;;;;18.63;11.77;;;;;;;11.44;66.51;100329.25;10087710;29;20055;-77
2023/05/16 00:19:43;;;;;;;15.70;11.15;;;;;;;11.56;66.39;100327.34;10090021;29;20047;-76
2023/05/16 00:24:47;;;;;;;17.17;11.23;;;;;;;11.66;66.16;100324.72;10083497;29;20077;-76
2023/05/16 00:29:50;;;;;;;17.60;10.45;;;;;;;11.56;66.32;100326.47;10086751;29;20078;-76
2023/05/16 00:34:54;;;;;;;18.83;10.43;;;;;;;11.35;66.47;100324.63;10085178;29;20525;-76
2023/05/16 00:39:57;;;;;;;14.98;10.30;;;;;;;11.53;66.35;100324.91;10083616;29;20098;-76
2023/05/16 00:45:00;;;;;;;16.45;10.00;;;;;;;11.58;66.51;100327.22;10086354;29;20061;-76
2023/05/16 00:50:06;;;;;;;13.57;9.63;;;;;;;11.46;66.69;100315.66;10085258;29;20030;-76
2023/05/16 00:55:10;;;;;;;13.88;8.82;;;;;;;11.58;66.69;100317.31;10092833;29;20053;-76
2023/05/16 01:00:15;;;;;;;14.65;8.90;;;;;;;11.59;66.68;100316.31;10079779;29;20052;-76
2023/05/16 01:05:19;;;;;;;11.65;8.30;;;;;;;11.53;66.33;100318.69;10082289;29;20087;-76
2023/05/16 01:10:22;;;;;;;14.55;8.45;;;;;;;11.59;66.53;100319.00;10082968;29;20075;-76
2023/05/16 01:15:30;;;;;;;10.15;6.57;;;;;;;11.35;66.23;100319.25;10084789;29;20056;-75
2023/05/16 01:20:43;;;;;;;11.30;6.18;;;;;;;11.29;66.59;100322.47;10080546;29;20505;-75
2023/05/16 01:25:57;;;;;;;8.60;5.43;;;;;;;11.15;66.67;100325.50;10083536;29;20094;-76
2023/05/16 01:31:02;;;;;;;7.15;5.13;;;;;;;11.46;66.35;100331.78;10079248;29;20136;-75
2023/05/16 01:36:16;;;;;;;9.30;5.22;;;;;;;11.43;66.54;100327.53;10082639;29;20148;-77
2023/05/16 01:41:24;;;;;;;7.15;5.25;;;;;;;11.30;66.42;100332.28;10084604;29;20037;-76
2023/05/16 01:46:37;;;;;;;9.52;5.20;;;;;;;10.92;69.34;100330.94;10081998;29;20041;-76
2023/05/16 01:51:43;;;;;;;5.65;5.05;;;;;;;10.83;70.49;100339.75;10083523;29;20223;-76
2023/05/16 01:56:52;;;;;;;7.68;4.85;;;;;;;10.74;70.02;100346.72;10084404;29;20048;-76
2023/05/16 02:01:58;;;;;;;7.22;4.53;;;;;;;10.68;71.06;100358.00;10080713;29;20049;-76
2023/05/16 02:07:01;;;;;;;7.85;4.72;;;;;;;10.51;74.09;100369.25;10081253;29;20045;-76
2023/05/16 02:12:04;;;;;;;10.30;5.00;;;;;;;10.39;74.55;100380.03;10084833;29;20124;-75
2023/05/16 02:17:09;;;;;;;10.10;4.80;;;;;;;10.31;73.85;100378.91;10090994;29;20053;-76
2023/05/16 02:22:12;;;;;;;8.10;3.95;;;;;;;10.24;73.07;100381.25;10090199;29;20602;-76
2023/05/16 02:27:14;;;;;;;8.25;3.75;;;;;;;10.17;71.97;100388.06;10082471;29;20783;-76
2023/05/16 02:32:19;;;;;;;18.83;4.28;;;;;;;9.80;71.95;100387.41;10087071;29;20033;-76
2023/05/16 02:37:21;;;;;;;8.10;3.35;;;;;;;9.69;71.71;100393.59;10091352;29;20044;-76
2023/05/16 02:42:26;;;;;;;15.18;3.20;;;;;;;9.98;71.57;100398.53;10092474;29;20049;-76
2023/05/16 02:47:30;;;;;;;9.38;3.70;;;;;;;10.05;71.76;100395.25;10091155;29;20136;-76
2023/05/16 02:52:34;;;;;;;9.55;4.10;;;;;;;10.20;72.36;100401.22;10090334;29;20080;-76
2023/05/16 02:57:37;;;;;;;11.63;3.50;;;;;;;10.06;72.33;100402.31;10086338;29;20057;-76
2023/05/16 03:02:41;;;;;;;9.50;3.03;;;;;;;10.03;71.82;100397.19;10086206;29;20422;-76
2023/05/16 03:07:44;;;;;;;10.00;3.30;;;;;;;9.88;72.20;100401.94;10078604;29;20068;-76
2023/05/16 03:12:47;;;;;;;21.23;5.70;;;;;;;9.69;71.67;100404.31;10086910;29;20136;-76
2023/05/16 03:17:51;;;;;;;11.55;3.15;;;;;;;9.79;70.24;100413.38;10084477;29;20692;-77
2023/05/16 03:22:54;;;;;;;11.88;3.65;;;;;;;9.86;69.80;100413.78;10083520;29;20077;-76
2023/05/16 03:27:57;;;;;;;13.98;2.95;;;;;;;9.73;69.37;100429.91;10079708;29;20061;-76
2023/05/16 03:33:02;;;;;;;9.52;3.20;;;;;;;9.61;69.21;100453.19;10088563;29;20069;-75
2023/05/16 03:38:06;;;;;;;8.93;3.15;;;;;;;9.72;68.58;100449.69;10087550;29;20045;-75
2023/05/16 03:43:08;;;;;;;12.65;3.45;;;;;;;9.75;67.90;100452.13;10085906;29;20052;-75
2023/05/16 03:48:13;;;;;;;11.55;2.58;;;;;;;9.67;67.81;100466.13;10086555;29;20151;-75
2023/05/16 03:53:15;;;;;;;9.68;2.90;;;;;;;9.76;66.36;100469.06;10083643;29;20508;-75
2023/05/16 03:58:18;;;;;;;13.23;3.13;;;;;;;9.86;66.03;100470.97;10086511;29;20417;-76
2023/05/16 04:03:27;;;;;;;15.73;3.00;;;;;;;9.87;66.01;100469.13;10088130;29;20053;-75
2023/05/16 04:08:30;;;;;;;15.02;3.00;;;;;;;9.62;66.45;100480.84;10087218;29;20045;-75
2023/05/16 04:13:33;;;;;;;17.90;3.80;;;;;;;9.66;66.43;100474.28;10087438;29;20044;-75
2023/05/16 04:18:37;;;;;;;16.88;4.05;;;;;;;9.32;66.67;100490.22;10087634;29;20053;-75
2023/05/16 04:23:40;;;;;;;10.73;2.92;;;;;;;9.31;66.82;100495.72;10086554;29;20041;-75
2023/05/16 04:28:43;;;;;;;10.00;3.17;;;;;;;9.53;66.31;100506.53;10086966;29;20083;-76
2023/05/16 04:33:47;;;;;;;17.05;3.05;;;;;;;9.45;65.51;100512.47;10088022;29;20051;-76
2023/05/16 04:38:50;;;;;;;20.15;3.08;;;;;;;9.52;65.32;100520.94;10088827;29;20084;-76
2023/05/16 04:43:53;;;;;;;15.55;4.32;;;;;;;8.95;66.16;100527.75;10088137;29;20049;-77
2023/05/16 04:48:57;;;;;;;20.48;4.47;;;;;;;9.16;65.71;100536.06;10086492;29;20077;-76
2023/05/16 04:54:00;;;;;;;19.20;2.53;;;;;;;9.62;63.57;100543.38;10086701;29;20045;-76
2023/05/16 04:59:04;;;;;;;10.98;3.80;;;;;;;9.60;63.17;100541.78;10086456;29;20083;-76
2023/05/16 05:04:08;;;;;;;12.52;2.10;;;;;;;9.59;62.79;100543.63;10081808;29;20045;-76
2023/05/16 05:09:12;;;;;;;16.67;2.50;;;;;;;9.72;62.77;100557.84;10085165;29;20072;-76
2023/05/16 05:14:15;;;;;;;19.05;2.72;;;;;;;9.70;62.22;100553.56;10088984;29;20116;-76
2023/05/16 05:19:19;;;;;;;13.02;2.58;;;;;;;9.41;62.73;100571.81;10090847;29;20041;-77
2023/05/16 05:24:22;;;;;;;20.52;3.25;;;;;;;9.19;63.89;100575.19;10090072;29;20680;-76
2023/05/16 05:29:25;;;;;;;21.98;2.78;;;;;;;9.21;64.11;100584.81;10090044;29;20127;-77
2023/05/16 05:34:29;;;;;;;17.73;3.50;;;;;;;9.06;64.89;100596.66;10089432;29;20041;-76
2023/05/16 05:39:32;;;;;;;13.40;2.92;;;;;;;9.07;64.37;100601.03;10089161;29;20044;-76
2023/05/16 05:44:36;;;;;;;12.25;2.63;;;;;;;8.97;64.38;100608.88;10086273;29;20127;-77
2023/05/16 05:49:41;;;;;;;17.88;2.53;;;;;;;9.03;64.56;100613.81;10086396;29;20124;-76
2023/05/16 05:54:43;;;;;;;11.13;2.47;;;;;;;9.31;64.28;100611.81;10087158;29;20105;-76
2023/05/16 05:59:46;;;;;;;18.67;2.88;;;;;;;9.23;63.86;100609.69;10087129;29;20402;-76
2023/05/16 06:04:50;;;;;;;14.73;3.85;;;;;;;9.23;63.32;100622.25;10086940;29;20112;-76
2023/05/16 06:09:53;;;;;;;14.05;2.53;;;;;;;9.64;63.21;100626.44;10095675;29;20179;-75
2023/05/16 06:14:56;;;;;;;17.77;3.05;;;;;;;9.40;63.16;100627.25;10087281;29;20096;-77
2023/05/16 06:20:00;;;;;;;17.65;2.47;;;;;;;9.96;63.21;100632.16;10088331;29;20393;-76
2023/05/16 06:25:03;;;;;;;21.50;3.17;;;;;;;10.50;61.96;100638.81;10088040;29;20164;-77
2023/05/16 06:30:07;;;;;;;14.50;2.42;;;;;;;10.15;58.55;100648.56;10089104;29;20153;-77
2023/05/16 06:35:11;;;;;;;17.15;2.65;;;;;;;10.87;58.85;100646.72;10090125;29;20528;-76
2023/05/16 06:40:14;;;;;;;15.35;3.40;;;;;;;11.00;58.44;100661.75;10091938;29;20052;-77
2023/05/16 06:45:17;;;;;;;14.75;2.47;;;;;;;10.86;56.54;100656.63;10086955;29;20049;-77
2023/05/16 06:50:22;;;;;;;21.88;3.42;;;;;;;10.64;56.77;100664.59;10088109;29;20045;-77
2023/05/16 06:55:24;;;;;;;11.23;2.42;;;;;;;10.65;56.34;100655.59;10088430;29;20049;-76
2023/05/16 07:00:28;;;;;;;13.63;3.60;;;;;;;10.21;56.44;100649.94;10086416;29;20139;-76
2023/05/16 07:05:32;;;;;;;34.70;5.75;;;;;;;11.36;54.04;100662.53;10087791;29;20049;-77
2023/05/16 07:10:35;;;;;;;31.27;5.30;;;;;;;11.36;53.93;100664.38;10087442;29;20540;-75
2023/05/16 07:15:38;;;;;;;17.15;2.78;;;;;;;10.51;53.40;100662.03;10087049;29;20053;-76
2023/05/16 07:20:42;;;;;;;17.50;3.03;;;;;;;10.90;54.49;100663.44;10090939;29;20057;-75
2023/05/16 07:25:45;;;;;;;14.23;1.65;;;;;;;11.90;53.71;100660.84;10094526;29;20085;-76
2023/05/16 07:30:48;;;;;;;7.57;1.63;;;;;;;12.43;49.93;100673.59;10094424;29;20056;-76
2023/05/16 07:35:52;;;;;;;27.42;4.43;;;;;;;14.13;47.89;100670.28;10095051;29;20180;-76
2023/05/16 07:41:10;;;;;;;9.23;0.93;;;;;;;12.45;48.54;100672.47;10094469;29;20077;-75
2023/05/16 07:46:13;;;;;;;6.88;1.75;;;;;;;13.39;47.34;100664.41;10090500;29;20101;-75
2023/05/16 07:51:17;;;;;;;10.20;1.95;;;;;;;13.28;46.99;100676.13;10091150;29;20045;-77
2023/05/16 07:56:20;;;;;;;9.63;1.52;;;;;;;11.77;49.58;100677.19;10092465;29;20052;-76
2023/05/16 08:01:23;;;;;;;10.00;1.65;;;;;;;11.87;49.27;100672.72;10092242;29;20049;-76
2023/05/16 08:06:28;;;;;;;16.30;3.45;;;;;;;11.32;51.46;100684.41;10093441;29;20056;-77
2023/05/16 08:11:31;;;;;;;8.65;1.40;;;;;;;12.88;47.92;100671.47;10090948;29;20133;-77
2023/05/16 08:16:34;;;;;;;12.95;1.63;;;;;;;14.25;45.58;100675.53;10093150;29;20148;-77
2023/05/16 08:21:39;;;;;;;8.63;1.38;;;;;;;13.79;45.12;100672.47;10095572;29;20069;-77
2023/05/16 08:26:42;;;;;;;10.50;1.65;;;;;;;14.30;44.31;100679.53;10093415;29;20047;-77
2023/05/16 08:31:45;;;;;;;6.28;1.52;;;;;;;13.15;44.18;100678.16;10089243;29;20045;-76
2023/05/16 08:36:49;;;;;;;5.50;1.30;;;;;;;13.61;45.50;100683.09;10089716;29;20132;-75
2023/05/16 08:41:52;;;;;;;7.05;1.23;;;;;;;14.74;43.73;100674.56;10089766;29;20470;-76
2023/05/16 08:46:55;;;;;;;4.20;1.38;;;;;;;15.34;41.99;100662.59;10086726;29;20064;-77
2023/05/16 08:52:02;;;;;;;4.95;1.05;;;;;;;15.64;38.78;100667.75;10090452;29;20059;-76
2023/05/16 08:57:05;;;;;;;14.80;2.75;;;;;;;14.59;41.48;100676.88;10088907;29;20080;-76
2023/05/16 09:02:09;;;;;;;9.25;1.75;;;;;;;13.64;44.60;100676.56;10086181;29;20097;-76
2023/05/16 09:07:13;;;;;;;5.65;1.25;;;;;;;13.09;45.54;100679.56;10085483;29;20049;-76
2023/05/16 09:12:16;;;;;;;6.47;1.15;;;;;;;11.64;46.43;100682.69;10086568;29;20107;-77
2023/05/16 09:17:19;;;;;;;5.68;1.33;;;;;;;13.24;46.32;100685.44;10086646;29;20060;-76
2023/05/16 09:22:40;;;;;;;7.28;1.33;;;;;;;15.19;42.07;100673.91;10084272;29;20500;-77
2023/05/16 09:27:43;;;;;;;7.50;1.48;;;;;;;13.77;43.50;100685.28;10083045;29;20059;-75
2023/05/16 09:32:45;;;;;;;7.43;1.23;;;;;;;14.19;43.73;100686.91;10083142;29;20104;-77
2023/05/16 09:37:51;;;;;;;6.22;1.20;;;;;;;15.02;41.89;100661.13;10080698;29;20327;-76
2023/05/16 09:43:03;;;;;;;6.75;1.52;;;;;;;16.01;40.96;100674.94;10080152;29;20041;-77
2023/05/16 09:48:08;;;;;;;9.98;1.20;;;;;;;14.74;40.75;100677.25;10081896;29;20064;-77
2023/05/16 09:53:14;;;;;;;7.97;1.13;;;;;;;15.83;40.74;100693.03;10081276;29;20041;-77
2023/05/16 09:58:17;;;;;;;3.58;1.08;;;;;;;16.09;38.68;100683.16;10081308;29;20049;-76
2023/05/16 10:03:20;;;;;;;3.80;1.20;;;;;;;16.63;37.49;100672.34;10078929;29;20052;-77
2023/05/16 10:08:26;;;;;;;7.03;1.00;;;;;;;16.03;40.08;100681.06;10083526;29;20049;-77
2023/05/16 10:13:31;;;;;;;4.72;1.10;;;;;;;15.51;39.87;100666.41;10084273;29;20049;-77
2023/05/16 10:18:35;;;;;;;5.57;1.08;;;;;;;13.88;42.77;100674.34;10084342;29;20041;-76
2023/05/16 10:23:42;;;;;;;6.57;1.08;;;;;;;13.59;43.07;100676.13;10082861;29;20505;-77
2023/05/16 10:28:45;;;;;;;10.23;1.75;;;;;;;14.56;43.03;100676.28;10083401;29;20056;-77
2023/05/16 10:33:49;;;;;;;7.20;1.20;;;;;;;16.53;38.98;100661.56;10085425;29;20045;-78
2023/05/16 10:38:54;;;;;;;4.25;0.93;;;;;;;18.01;37.21;100646.13;10086666;29;20053;-75
2023/05/16 10:43:58;;;;;;;4.78;0.95;;;;;;;16.46;37.91;100671.34;10084390;29;20052;-77
2023/05/16 10:49:19;;;;;;;3.20;0.90;;;;;;;15.89;38.68;100666.16;10085759;29;20576;-77
2023/05/16 10:54:34;;;;;;;5.20;1.30;;;;;;;16.62;37.72;100654.38;10088089;29;20037;-76
2023/05/16 10:59:43;;;;;;;5.40;1.10;;;;;;;15.44;38.40;100667.00;10102989;29;20077;-78
2023/05/16 11:04:48;;;;;;;6.22;1.10;;;;;;;15.17;39.38;100670.47;10106294;29;20052;-77
2023/05/16 11:10:05;;;;;;;6.05;1.13;;;;;;;14.72;41.13;100673.00;10104801;29;20049;-77
2023/05/16 11:15:23;;;;;;;6.00;1.67;;;;;;;16.16;39.03;100680.69;10106066;29;20060;-75
2023/05/16 11:20:30;;;;;;;3.80;0.82;;;;;;;17.31;39.70;100678.97;10091583;29;20049;-76
2023/05/16 11:25:39;;;;;;;6.28;1.30;;;;;;;18.62;37.37;100677.47;10094950;29;20127;-76
2023/05/16 11:30:44;;;;;;;5.40;1.83;;;;;;;18.22;37.50;100667.41;10091200;29;20073;-76
2023/05/16 11:36:04;;;;;;;8.18;1.85;;;;;;;18.94;36.69;100668.47;10091507;29;20049;-77
2023/05/16 11:41:20;;;;;;;5.63;0.90;;;;;;;17.03;39.00;100655.53;10090939;29;20801;-76
2023/05/16 11:46:23;;;;;;;3.50;0.95;;;;;;;18.45;33.46;100659.44;10089482;29;20527;-77
2023/05/16 11:51:26;;;;;;;7.03;1.05;;;;;;;18.79;32.40;100667.47;10083998;29;20059;-76
2023/05/16 11:56:30;;;;;;;2.45;0.85;;;;;;;19.11;32.41;100669.28;10085071;29;20152;-74
2023/05/16 12:01:35;;;;;;;6.10;1.15;;;;;;;16.11;36.53;100672.16;10082459;29;20061;-76
2023/05/16 12:06:38;;;;;;;2.60;1.15;;;;;;;16.72;36.78;100671.38;10086751;29;20509;-77
2023/05/16 12:11:43;;;;;;;4.53;1.15;;;;;;;15.45;37.78;100678.69;10090480;29;20061;-77
2023/05/16 12:16:48;;;;;;;8.25;1.45;;;;;;;15.87;38.32;100678.16;10088552;29;20037;-76
2023/05/16 12:21:53;;;;;;;5.38;1.45;;;;;;;15.55;38.06;100676.78;10086892;29;20108;-76
2023/05/16 12:26:58;;;;;;;5.45;1.10;;;;;;;16.71;39.02;100672.41;10087894;29;20045;-78
2023/05/16 12:32:01;;;;;;;7.57;1.33;;;;;;;16.39;35.21;100653.16;10089964;29;20051;-76
2023/05/16 12:37:05;;;;;;;4.35;1.17;;;;;;;17.01;36.21;100660.25;10088776;29;20041;-76
2023/05/16 12:42:12;;;;;;;5.85;1.40;;;;;;;18.89;33.46;100654.53;10088668;29;20797;-77
2023/05/16 12:47:15;;;;;;;7.18;1.10;;;;;;;20.31;31.26;100652.78;10088250;29;20037;-75
2023/05/16 12:52:19;;;;;;;4.55;1.00;;;;;;;18.85;33.02;100653.19;10089348;29;20100;-75
2023/05/16 12:57:23;;;;;;;3.75;0.80;;;;;;;18.80;32.08;100677.34;10088215;29;20107;-75
2023/05/16 13:02:26;;;;;;;5.18;0.82;;;;;;;16.89;33.81;100676.94;10086374;29;20440;-76
2023/05/16 13:07:30;;;;;;;5.50;0.90;;;;;;;16.79;35.51;100677.06;10084799;29;20454;-77
2023/05/16 13:12:34;;;;;;;4.85;0.80;;;;;;;17.60;34.53;100679.41;10089525;29;20052;-77
2023/05/16 13:17:38;;;;;;;5.57;0.90;;;;;;;20.06;33.20;100666.53;10096971;29;20045;-77
2023/05/16 13:22:42;;;;;;;8.52;1.60;;;;;;;20.27;32.61;100670.53;10100256;29;20140;-76
2023/05/16 13:27:48;;;;;;;2.85;0.73;;;;;;;20.82;31.84;100660.38;10095881;29;20037;-75
2023/05/16 13:32:51;;;;;;;5.75;0.90;;;;;;;21.21;31.18;100662.91;10101366;29;20041;-76
2023/05/16 13:37:54;;;;;;;5.95;0.80;;;;;;;20.66;32.43;100662.22;10095141;29;20041;-77
2023/05/16 13:42:59;;;;;;;2.95;0.75;;;;;;;20.41;31.89;100683.41;10100109;29;20049;-77
2023/05/16 13:48:03;;;;;;;2.78;0.75;;;;;;;18.84;34.16;100686.88;10097580;29;20520;-77
2023/05/16 13:53:06;;;;;;;2.67;1.10;;;;;;;18.62;34.17;100698.38;10094711;29;20049;-77
2023/05/16 13:58:10;;;;;;;4.40;1.20;;;;;;;17.69;34.85;100694.75;10091754;29;20045;-77
2023/05/16 14:03:13;;;;;;;5.15;0.90;;;;;;;19.53;33.42;100692.69;10093682;29;20465;-77
2023/05/16 14:08:16;;;;;;;5.45;1.33;;;;;;;20.34;32.40;100706.97;10094359;29;20047;-77
2023/05/16 14:13:20;;;;;;;4.90;1.10;;;;;;;20.33;31.97;100692.47;10095974;29;20068;-77
2023/05/16 14:18:23;;;;;;;3.95;1.00;;;;;;;20.43;31.74;100691.38;10093797;29;20048;-77
2023/05/16 14:23:26;;;;;;;3.97;0.75;;;;;;;15.17;35.93;100702.09;10093162;29;20041;-77
2023/05/16 14:28:31;;;;;;;3.47;0.80;;;;;;;15.09;39.38;100718.22;10091887;29;20100;-75
2023/05/16 14:33:34;;;;;;;5.30;1.52;;;;;;;14.99;43.24;100735.31;10131678;29;20101;-73
2023/05/16 14:38:37;;;;;;;8.02;1.00;;;;;;;15.29;42.53;100733.41;10114998;29;20104;-76
2023/05/16 14:43:41;;;;;;;5.90;1.33;;;;;;;16.20;40.96;100743.56;10100175;29;20070;-77
2023/05/16 14:48:44;;;;;;;6.90;1.05;;;;;;;16.33;38.90;100730.53;10111492;29;20049;-75
2023/05/16 14:53:47;;;;;;;3.90;1.23;;;;;;;14.62;38.36;100745.13;10119845;29;20042;-76
2023/05/16 14:58:51;;;;;;;7.25;1.30;;;;;;;16.07;38.88;100738.50;10115029;29;20063;-78
2023/05/16 15:03:54;;;;;;;5.43;0.60;;;;;;;17.09;36.93;100735.44;10093594;29;20160;-77
2023/05/16 15:08:58;;;;;;;5.70;0.90;;;;;;;18.23;35.15;100750.69;10093920;29;20525;-75
2023/05/16 15:14:02;;;;;;;4.03;1.13;;;;;;;19.13;33.12;100743.47;10095433;29;20441;-76
2023/05/16 15:19:05;;;;;;;5.78;1.10;;;;;;;19.78;32.10;100742.50;10090527;29;20056;-76
2023/05/16 15:24:08;;;;;;;3.65;0.98;;;;;;;18.94;33.24;100735.66;10092915;29;20184;-77
2023/05/16 15:29:13;;;;;;;6.70;1.40;;;;;;;18.08;33.22;100737.72;10092542;29;20413;-77
2023/05/16 15:34:16;;;;;;;6.13;1.30;;;;;;;18.63;32.85;100730.88;10100196;29;20049;-76
2023/05/16 15:39:18;;;;;;;4.85;1.00;;;;;;;18.25;33.76;100741.34;10096082;29;20061;-77
2023/05/16 15:44:23;;;;;;;7.13;1.40;;;;;;;17.12;35.90;100750.56;10089080;29;20416;-77
2023/05/16 15:49:25;;;;;;;6.70;1.20;;;;;;;16.89;37.04;100767.31;10094649;29;20052;-75
2023/05/16 15:54:28;;;;;;;5.82;1.00;;;;;;;16.83;36.86;100754.38;10094679;29;20501;-77
2023/05/16 15:59:33;;;;;;;4.78;1.20;;;;;;;16.28;37.54;100759.94;10096044;29;20045;-76
2023/05/16 16:04:36;;;;;;;8.18;1.27;;;;;;;15.88;38.46;100759.28;10094357;29;20053;-77
2023/05/16 16:09:38;;;;;;;4.57;1.00;;;;;;;16.32;38.05;100761.38;10094453;29;20045;-76
2023/05/16 16:14:43;;;;;;;5.85;1.33;;;;;;;17.07;35.81;100758.31;10091719;29;20056;-76
2023/05/16 16:19:46;;;;;;;3.38;1.23;;;;;;;16.81;36.15;100765.41;10089448;29;20396;-76
2023/05/16 16:24:48;;;;;;;5.18;1.83;;;;;;;16.89;37.20;100769.19;10089447;29;20050;-77
2023/05/16 16:29:53;;;;;;;3.97;1.15;;;;;;;16.11;37.93;100767.88;10092402;29;20102;-77
2023/05/16 16:34:55;;;;;;;5.40;0.93;;;;;;;15.51;38.87;100778.25;10092839;29;20044;-76
2023/05/16 16:39:58;;;;;;;5.88;1.42;;;;;;;15.67;40.11;100769.50;10092185;29;20509;-77
2023/05/16 16:45:03;;;;;;;5.20;1.35;;;;;;;15.92;38.37;100778.81;10091848;29;20116;-77
2023/05/16 16:50:06;;;;;;;2.50;1.05;;;;;;;16.33;37.68;100774.75;10091091;29;20049;-77
2023/05/16 16:55:11;;;;;;;7.45;1.90;;;;;;;17.47;36.78;100774.94;10090614;29;20496;-76
2023/05/16 17:00:16;;;;;;;7.53;1.73;;;;;;;16.36;38.05;100773.59;10089261;29;20049;-76
2023/05/16 17:05:19;;;;;;;3.78;1.63;;;;;;;15.77;39.40;100777.56;10088855;29;20033;-76
2023/05/16 17:10:22;;;;;;;7.63;2.40;;;;;;;15.48;39.63;100792.06;10089662;29;20052;-77
2023/05/16 17:15:26;;;;;;;6.78;1.70;;;;;;;15.06;40.86;100803.22;10089918;29;20064;-76
2023/05/16 17:20:30;;;;;;;9.85;1.90;;;;;;;14.75;41.12;100806.06;10088556;29;20072;-75
2023/05/16 17:25:33;;;;;;;5.30;1.85;;;;;;;14.26;41.42;100813.22;10089647;29;20425;-77
2023/05/16 17:30:37;;;;;;;11.30;2.60;;;;;;;13.76;42.05;100821.25;10087936;29;20076;-77
2023/05/16 17:35:40;;;;;;;7.53;3.00;;;;;;;13.55;42.82;100813.19;10087827;29;20485;-77
2023/05/16 17:40:43;;;;;;;6.47;2.10;;;;;;;13.86;42.38;100824.84;10086485;29;20060;-77
2023/05/16 17:45:47;;;;;;;5.75;2.47;;;;;;;13.31;43.35;100829.63;10086111;29;20068;-76
2023/05/16 17:50:51;;;;;;;6.18;2.00;;;;;;;13.42;44.32;100837.69;10086948;29;20402;-76
2023/05/16 17:55:54;;;;;;;6.60;2.55;;;;;;;13.46;43.77;100838.25;10084566;29;20521;-76
2023/05/16 18:00:58;;;;;;;10.68;3.28;;;;;;;13.35;43.96;100841.00;10083542;29;20041;-77
2023/05/16 18:06:01;;;;;;;6.40;2.90;;;;;;;12.93;45.28;100844.50;10045693;29;20044;-75
2023/05/16 18:11:04;;;;;;;9.20;3.10;;;;;;;12.55;46.53;100848.53;10045984;29;20053;-76
2023/05/16 18:16:08;;;;;;;8.68;3.20;;;;;;;12.44;46.80;100848.56;10041064;29;20069;-75
2023/05/16 18:21:11;;;;;;;6.53;3.38;;;;;;;12.43;47.29;100859.50;10062250;29;20052;-75
2023/05/16 18:26:16;;;;;;;8.65;3.00;;;;;;;12.12;47.91;100865.47;10054797;29;20071;-77
2023/05/16 18:31:20;;;;;;;7.53;2.95;;;;;;;12.72;46.93;100866.00;10045537;29;20048;-77
2023/05/16 18:36:23;;;;;;;6.20;2.80;;;;;;;12.24;47.89;100876.25;10048924;29;20048;-76
2023/05/16 18:41:27;;;;;;;5.78;2.70;;;;;;;11.46;49.37;100875.16;10044532;29;20531;-76
2023/05/16 18:46:31;;;;;;;5.57;2.55;;;;;;;11.64;49.10;100872.88;10040281;29;20117;-76
2023/05/16 18:51:34;;;;;;;5.03;2.00;;;;;;;11.68;48.60;100891.38;10043228;29;20556;-76
2023/05/16 18:56:37;;;;;;;5.43;2.95;;;;;;;11.61;48.83;100890.13;10039603;29;20532;-76
2023/05/16 19:01:41;;;;;;;8.02;2.78;;;;;;;11.75;49.67;100904.34;10040268;29;20495;-76
2023/05/16 19:06:44;;;;;;;3.83;2.33;;;;;;;11.78;49.48;100901.41;10041953;29;20167;-75
2023/05/16 19:11:47;;;;;;;5.78;2.65;;;;;;;11.80;50.02;100905.72;10043623;29;20061;-75
2023/05/16 19:16:51;;;;;;;6.20;2.45;;;;;;;11.27;50.74;100908.88;10051303;29;20710;-77
2023/05/16 19:21:55;;;;;;;5.25;2.63;;;;;;;11.43;50.45;100905.00;10059830;29;20042;-75
2023/05/16 19:26:57;;;;;;;6.07;2.78;;;;;;;11.21;51.07;100919.22;10053251;29;20571;-77
2023/05/16 19:32:02;;;;;;;4.82;2.28;;;;;;;11.73;50.38;100926.00;10058845;29;20128;-77
2023/05/16 19:37:05;;;;;;;4.03;2.13;;;;;;;11.01;51.13;100934.13;10051313;29;20064;-75
2023/05/16 19:42:08;;;;;;;3.58;2.03;;;;;;;11.34;50.82;100935.28;10052764;29;20053;-76
2023/05/16 19:47:12;;;;;;;6.32;1.98;;;;;;;10.73;51.70;100938.84;10051930;29;20049;-76
2023/05/16 19:52:15;;;;;;;2.53;2.15;;;;;;;10.53;52.51;100936.72;10052532;29;20057;-76
2023/05/16 19:57:18;;;;;;;4.20;2.13;;;;;;;11.30;51.40;100939.16;10049954;29;20486;-75
2023/05/16 20:02:23;;;;;;;6.03;2.25;;;;;;;11.29;51.59;100946.38;10045626;29;20093;-74
2023/05/16 20:07:26;;;;;;;4.90;2.35;;;;;;;10.81;52.15;100943.66;10051664;29;20402;-75
2023/05/16 20:12:29;;;;;;;6.43;2.55;;;;;;;11.26;52.21;100954.69;10051835;29;20082;-76
2023/05/16 20:17:33;;;;;;;3.20;1.60;;;;;;;10.47;53.54;100947.91;10048124;29;20056;-76
2023/05/16 20:22:37;;;;;;;4.82;1.90;;;;;;;10.83;53.60;100960.50;10049878;29;20071;-76
2023/05/16 20:27:40;;;;;;;4.97;2.10;;;;;;;10.78;53.86;100947.44;10047189;29;20052;-75
2023/05/16 20:32:44;;;;;;;5.40;2.75;;;;;;;10.78;54.16;100954.63;10050183;29;20045;-77
2023/05/16 20:37:47;;;;;;;4.97;2.53;;;;;;;10.98;53.16;100961.22;10047763;29;20437;-76
2023/05/16 20:42:50;;;;;;;2.55;1.75;;;;;;;11.11;52.77;100961.16;10048400;29;20074;-74
2023/05/16 20:47:54;;;;;;;5.47;2.20;;;;;;;10.34;54.37;100962.25;10051664;29;20081;-76
2023/05/16 20:52:57;;;;;;;4.57;2.00;;;;;;;10.83;53.90;100960.50;10050139;29;20053;-76
2023/05/16 20:58:00;;;;;;;8.25;2.22;;;;;;;10.36;54.48;100960.28;10048793;29;20069;-74
2023/05/16 21:03:04;;;;;;;5.70;1.73;;;;;;;10.43;54.18;100963.41;10047717;29;20053;-76
2023/05/16 21:08:07;;;;;;;6.57;1.60;;;;;;;10.39;54.84;100962.78;10067769;29;20049;-76
2023/05/16 21:13:10;;;;;;;4.90;1.90;;;;;;;10.02;55.96;100964.50;10086319;29;20049;-74
2023/05/16 21:18:15;;;;;;;4.55;1.90;;;;;;;9.68;57.45;100957.84;10088412;29;20053;-75
2023/05/16 21:23:18;;;;;;;6.43;2.25;;;;;;;9.52;57.50;100971.47;10086042;29;20045;-75
2023/05/16 21:28:21;;;;;;;7.30;2.10;;;;;;;9.59;57.52;100974.59;10088443;29;20044;-74
2023/05/16 21:33:25;;;;;;;6.80;1.60;;;;;;;9.69;57.42;100967.66;10092806;29;20128;-76
2023/05/16 21:38:28;;;;;;;5.45;2.17;;;;;;;9.46;58.45;100969.19;10087571;29;20533;-75
2023/05/16 21:43:31;;;;;;;6.07;1.80;;;;;;;9.13;59.31;100972.28;10086677;29;20076;-75
2023/05/16 21:48:35;;;;;;;7.32;2.30;;;;;;;8.76;60.18;100977.38;10089076;29;20045;-76
2023/05/16 21:53:38;;;;;;;6.70;2.20;;;;;;;8.72;60.23;100975.81;10086311;29;20048;-74
2023/05/16 21:58:41;;;;;;;7.28;2.10;;;;;;;8.84;60.61;100978.59;10086332;29;20051;-75
2023/05/16 22:03:46;;;;;;;7.55;2.20;;;;;;;8.99;60.66;100982.06;10085457;29;20052;-74
2023/05/16 22:08:49;;;;;;;3.65;1.75;;;;;;;9.02;60.11;100983.69;10086157;29;20080;-76
2023/05/16 22:13:51;;;;;;;6.45;2.30;;;;;;;9.13;60.32;100978.50;10084669;29;20061;-75
2023/05/16 22:18:56;;;;;;;4.07;1.92;;;;;;;8.86;61.16;100975.81;10084924;29;20186;-76
2023/05/16 22:23:59;;;;;;;6.85;1.90;;;;;;;8.60;62.15;100981.00;10083299;29;20080;-77
2023/05/16 22:29:02;;;;;;;4.68;2.33;;;;;;;8.46;62.98;100977.50;10083522;29;20053;-75
2023/05/16 22:34:06;;;;;;;6.05;2.17;;;;;;;8.52;62.64;100972.59;10084508;29;20073;-76
2023/05/16 22:39:09;;;;;;;9.48;2.35;;;;;;;8.81;61.77;100978.78;10084119;29;20050;-76
2023/05/16 22:44:12;;;;;;;6.20;2.38;;;;;;;8.36;63.32;100975.38;10083950;29;20505;-75
2023/05/16 22:49:16;;;;;;;7.35;2.38;;;;;;;8.44;63.00;100984.72;10085088;29;20041;-77
2023/05/16 22:54:19;;;;;;;7.75;2.53;;;;;;;8.43;63.34;100983.84;10090614;29;20049;-76
2023/05/16 22:59:22;;;;;;;7.22;2.33;;;;;;;8.31;63.76;100981.94;10091140;29;20045;-76
2023/05/16 23:04:26;;;;;;;6.72;2.70;;;;;;;8.15;64.62;100984.72;10089919;29;20857;-76
2023/05/16 23:09:29;;;;;;;6.90;2.45;;;;;;;8.23;64.58;100979.75;10081337;29;20049;-76
2023/05/16 23:14:32;;;;;;;5.43;2.15;;;;;;;8.47;64.35;100984.56;10089544;29;20049;-76
2023/05/16 23:19:36;;;;;;;6.65;2.50;;;;;;;8.40;64.59;100982.25;10091814;29;20037;-74